Time;durP1;ratioP1;P1;durP2;ratioP2;P2;SDS_P1;SDS_P2;PMS_P1;PMS_P2;Temp;Humidity;BMP_temperature;BMP_pressure;BME280_temperature;BME280_humidity;BME280_pressure;Samples;Min_cycle;Max_cycle;Signal;HPM_P1;HPM_P2
2023/03/16 00:02:09;;;;;;;91.05;87.47;;;11.70;93.60;;;;;;5027476;28;20149;-75
2023/03/16 00:04:36;;;;;;;89.75;86.25;;;11.70;93.60;;;;;;5028850;28;20083;-75
2023/03/16 00:07:08;;;;;;;87.95;84.55;;;11.70;93.60;;;;;;5027393;28;20041;-76
2023/03/16 00:09:35;;;;;;;86.30;82.90;;;11.70;93.60;;;;;;5028869;28;20390;-76
2023/03/16 00:12:04;;;;;;;87.78;84.38;;;11.70;93.60;;;;;;5011154;28;20029;-75
2023/03/16 00:14:31;;;;;;;85.93;82.53;;;11.70;93.70;;;;;;5027354;28;20040;-76
2023/03/16 00:16:57;;;;;;;85.00;81.70;;;11.70;93.70;;;;;;5028668;28;20049;-76
2023/03/16 00:19:23;;;;;;;88.53;85.07;;;11.70;93.70;;;;;;5027219;28;20029;-75
2023/03/16 00:21:52;;;;;;;91.28;87.70;;;11.70;93.70;;;;;;5027523;28;20048;-75
2023/03/16 00:24:18;;;;;;;87.97;84.57;;;11.70;93.70;;;;;;5028623;28;20144;-75
2023/03/16 00:26:45;;;;;;;88.45;85.05;;;11.70;93.60;;;;;;5028657;28;20029;-75
2023/03/16 00:29:11;;;;;;;85.75;82.35;;;11.70;93.70;;;;;;5028581;28;20082;-75
2023/03/16 00:31:38;;;;;;;80.47;77.32;;;11.70;93.70;;;;;;5028649;28;20450;-75
2023/03/16 00:34:04;;;;;;;84.22;80.93;;;11.80;93.70;;;;;;5028553;28;20029;-75
2023/03/16 00:36:32;;;;;;;78.75;75.65;;;11.80;93.70;;;;;;5010937;28;20514;-75
2023/03/16 00:38:58;;;;;;;75.00;72.07;;;11.80;93.70;;;;;;5027012;28;20395;-75
2023/03/16 00:41:24;;;;;;;75.63;72.70;;;11.80;93.70;;;;;;5028326;28;20049;-75
2023/03/16 00:43:50;;;;;;;78.05;75.05;;;11.80;93.70;;;;;;5028422;28;20034;-75
2023/03/16 00:46:17;;;;;;;72.93;70.13;;;11.80;93.70;;;;;;5026810;28;20036;-76
2023/03/16 00:48:43;;;;;;;;;;;11.80;93.70;;;;;;5028499;28;20040;-75
2023/03/16 00:51:12;;;;;;;78.47;75.47;;;11.90;93.70;;;;;;5028601;28;19912;-75
2023/03/16 00:53:40;;;;;;;77.43;74.43;;;11.90;93.70;;;;;;5028209;28;20486;-76
2023/03/16 00:56:07;;;;;;;78.93;75.88;;;11.90;93.70;;;;;;5027044;28;20037;-76
2023/03/16 00:58:35;;;;;;;84.45;81.15;;;11.90;93.70;;;;;;5027161;28;20030;-76
2023/03/16 01:01:14;;;;;;;88.80;85.35;;;11.80;93.60;;;;;;5027155;28;20028;-73
2023/03/16 01:03:40;;;;;;;89.13;85.68;;;11.80;93.70;;;;;;5026484;28;20050;-76
2023/03/16 01:06:24;;;;;;;90.20;86.70;;;11.80;93.60;;;;;;5028212;28;20470;-76
2023/03/16 01:08:51;;;;;;;91.00;87.47;;;11.80;93.90;;;;;;5028062;28;20049;-76
2023/03/16 01:11:21;;;;;;;93.85;90.18;;;11.80;93.70;;;;;;5028481;28;20101;-76
2023/03/16 01:13:48;;;;;;;94.57;90.88;;;11.80;93.70;;;;;;5028278;28;20053;-75
2023/03/16 01:16:17;;;;;;;93.50;89.80;;;11.80;93.70;;;;;;5028215;28;20026;-75
2023/03/16 01:18:43;;;;;;;95.13;91.35;;;11.70;93.70;;;;;;5028136;28;20018;-75
2023/03/16 01:21:12;;;;;;;94.50;90.80;;;11.80;93.70;;;;;;5028035;28;20065;-75
2023/03/16 01:23:39;;;;;;;97.47;93.68;;;11.80;93.70;;;;;;5027936;28;20117;-76
2023/03/16 01:26:06;;;;;;;95.43;91.68;;;11.80;93.70;;;;;;5027941;28;20025;-75
2023/03/16 01:28:33;;;;;;;95.95;92.15;;;11.70;93.70;;;;;;5027865;28;20381;-75
2023/03/16 01:31:08;;;;;;;96.00;92.20;;;11.70;93.70;;;;;;5028012;28;20032;-75
2023/03/16 01:33:34;;;;;;;89.65;86.15;;;11.80;93.70;;;;;;5027977;28;20021;-75
2023/03/16 01:36:19;;;;;;;91.57;87.97;;;11.80;93.70;;;;;;5027828;28;20026;-76
2023/03/16 01:38:45;;;;;;;95.75;91.95;;;11.70;93.80;;;;;;5027936;28;20025;-76
2023/03/16 01:41:11;;;;;;;;;;;11.80;93.70;;;;;;5028298;28;20029;-75
2023/03/16 01:43:38;;;;;;;86.70;83.30;;;11.80;93.70;;;;;;5026717;28;19966;-75
2023/03/16 01:46:04;;;;;;;87.60;84.15;;;11.80;93.70;;;;;;5026588;28;20124;-75
2023/03/16 01:48:43;;;;;;;88.30;84.90;;;11.80;93.70;;;;;;5026654;28;20132;-75
2023/03/16 01:51:22;;;;;;;89.60;86.10;;;11.80;93.70;;;;;;5027931;28;20022;-75
2023/03/16 01:53:53;;;;;;;88.45;84.95;;;11.80;93.70;;;;;;5027719;28;20488;-76
2023/03/16 01:56:26;;;;;;;88.07;84.63;;;11.80;94.00;;;;;;5027809;28;20433;-75
2023/03/16 01:58:57;;;;;;;78.70;75.60;;;11.80;93.70;;;;;;5027946;28;20030;-76
2023/03/16 02:01:25;;;;;;;81.50;78.30;;;11.80;93.70;;;;;;5029474;28;20480;-76
2023/03/16 02:04:13;;;;;;;76.43;73.43;;;11.80;93.70;;;;;;5029273;28;20124;-75
2023/03/16 02:06:39;;;;;;;77.70;74.70;;;11.90;93.80;;;;;;5030077;28;20033;-75
2023/03/16 02:09:06;;;;;;;71.55;68.78;;;11.90;93.80;;;;;;5029074;28;20029;-75
2023/03/16 02:11:33;;;;;;;76.13;73.22;;;11.90;93.80;;;;;;5030502;28;20022;-75
2023/03/16 02:14:05;;;;;;;72.25;69.45;;;11.90;93.80;;;;;;5030540;28;20067;-75
2023/03/16 02:16:31;;;;;;;66.95;64.40;;;11.90;93.70;;;;;;5030228;28;20021;-75
2023/03/16 02:18:56;;;;;;;65.10;62.60;;;12.00;93.80;;;;;;5030254;28;20207;-75
2023/03/16 02:21:37;;;;;;;71.18;68.47;;;11.90;93.80;;;;;;5030192;28;20065;-74
2023/03/16 02:24:03;;;;;;;66.80;64.30;;;12.00;93.80;;;;;;5030166;28;20060;-74
2023/03/16 02:27:03;;;;;;;70.97;68.28;;;12.00;93.80;;;;;;5030187;28;20056;-74
2023/03/16 02:30:00;;;;;;;67.70;65.10;;;12.00;93.80;;;;;;5030029;28;20151;-75
2023/03/16 02:32:28;;;;;;;68.78;66.18;;;12.00;93.80;;;;;;5030038;28;20053;-75
2023/03/16 02:34:55;;;;;;;65.65;63.15;;;12.00;93.80;;;;;;5028744;28;20117;-75
2023/03/16 02:37:21;;;;;;;66.75;64.25;;;12.00;93.80;;;;;;5029859;28;20060;-75
2023/03/16 02:39:47;;;;;;;63.15;60.75;;;12.00;93.80;;;;;;5029833;28;20060;-75
2023/03/16 02:42:15;;;;;;;63.50;61.10;;;12.00;93.80;;;;;;5029747;28;20040;-75
2023/03/16 02:44:46;;;;;;;56.78;54.65;;;12.00;93.80;;;;;;5029812;28;20030;-75
2023/03/16 02:47:37;;;;;;;60.28;57.97;;;12.00;93.80;;;;;;5028273;28;20057;-74
2023/03/16 02:50:05;;;;;;;62.40;60.00;;;12.00;93.80;;;;;;5028335;28;20025;-75
2023/03/16 02:52:34;;;;;;;57.38;55.17;;;12.00;93.80;;;;;;5029588;28;20373;-75
2023/03/16 02:55:00;;;;;;;57.38;55.17;;;12.00;93.80;;;;;;5029595;28;20056;-75
2023/03/16 02:57:25;;;;;;;56.70;54.60;;;12.00;93.90;;;;;;5029407;28;20056;-75
2023/03/16 02:59:51;;;;;;;54.35;52.30;;;12.00;93.90;;;;;;5028251;28;20046;-74
2023/03/16 03:02:17;;;;;;;58.22;56.03;;;12.00;93.90;;;;;;5027962;28;20096;-75
2023/03/16 03:04:45;;;;;;;57.08;54.90;;;12.10;93.90;;;;;;5029406;28;20069;-75
2023/03/16 03:07:13;;;;;;;55.80;53.70;;;12.10;93.90;;;;;;5027924;28;20079;-75
2023/03/16 03:09:42;;;;;;;53.90;51.90;;;12.10;93.90;;;;;;5029135;28;20021;-75
2023/03/16 03:12:08;;;;;;;53.65;51.65;;;12.10;94.10;;;;;;5029302;28;20038;-75
2023/03/16 03:14:37;;;;;;;53.55;51.55;;;12.10;93.90;;;;;;5011542;28;20034;-75
2023/03/16 03:17:08;;;;;;;54.13;52.10;;;12.10;93.90;;;;;;5027739;28;20064;-75
2023/03/16 03:19:34;;;;;;;53.10;51.10;;;12.10;93.90;;;;;;5029199;28;20032;-74
2023/03/16 03:22:05;;;;;;;51.05;49.15;;;12.10;93.90;;;;;;5029073;28;20709;-75
2023/03/16 03:24:32;;;;;;;47.65;45.85;;;12.10;93.90;;;;;;5028991;28;20059;-75
2023/03/16 03:26:59;;;;;;;50.83;48.92;;;12.10;93.90;;;;;;5027691;28;20449;-74
2023/03/16 03:29:33;;;;;;;48.40;46.60;;;12.10;93.90;;;;;;5028799;28;20496;-74
2023/03/16 03:32:05;;;;;;;51.53;49.60;;;12.10;93.90;;;;;;5028894;28;20030;-74
2023/03/16 03:34:31;;;;;;;45.75;44.05;;;12.10;93.90;;;;;;5028812;28;20385;-75
2023/03/16 03:36:58;;;;;;;44.90;43.20;;;12.10;94.10;;;;;;5028717;28;20091;-75
2023/03/16 03:39:23;;;;;;;;;;;12.10;93.90;;;;;;5027888;28;20046;-75
2023/03/16 03:41:53;;;;;;;37.63;36.22;;;12.10;93.90;;;;;;5027349;28;20357;-75
2023/03/16 03:44:20;;;;;;;36.92;35.53;;;12.10;93.90;;;;;;5028611;28;20029;-75
2023/03/16 03:46:46;;;;;;;34.55;33.25;;;12.10;93.90;;;;;;5028488;28;20033;-75
2023/03/16 03:49:12;;;;;;;;;;;12.10;94.00;;;;;;5028855;28;20417;-75
2023/03/16 03:51:37;;;;;;;40.55;39.05;;;12.10;94.00;;;;;;5027137;28;19913;-69
2023/03/16 03:54:03;;;;;;;35.55;34.25;;;12.10;93.90;;;;;;5028367;28;20427;-75
2023/03/16 03:56:29;;;;;;;37.63;36.22;;;12.20;93.90;;;;;;5027123;28;20033;-75
2023/03/16 03:58:54;;;;;;;34.22;32.92;;;12.10;93.90;;;;;;5028299;28;20172;-75
2023/03/16 04:01:20;;;;;;;33.67;32.38;;;12.10;93.90;;;;;;5026915;28;20061;-75
2023/03/16 04:03:46;;;;;;;33.55;32.25;;;12.10;93.90;;;;;;5027051;28;20493;-75
2023/03/16 04:06:12;;;;;;;36.40;35.00;;;12.10;93.90;;;;;;5026716;28;20033;-74
2023/03/16 04:08:37;;;;;;;35.15;33.85;;;12.20;94.00;;;;;;5028009;28;20071;-75
2023/03/16 04:11:04;;;;;;;40.38;38.88;;;12.10;93.90;;;;;;5028248;28;20053;-75
2023/03/16 04:13:30;;;;;;;43.72;42.13;;;12.10;93.90;;;;;;5026795;28;20482;-75
2023/03/16 04:15:57;;;;;;;38.83;37.38;;;12.10;93.90;;;;;;5028096;28;20045;-75
2023/03/16 04:18:23;;;;;;;43.55;41.95;;;12.10;93.90;;;;;;5027772;28;20367;-75
2023/03/16 04:20:49;;;;;;;40.65;39.15;;;12.10;94.00;;;;;;5028004;28;20033;-74
2023/03/16 04:23:15;;;;;;;39.70;38.20;;;12.00;93.90;;;;;;5027419;28;20047;-75
2023/03/16 04:25:42;;;;;;;37.42;36.03;;;12.00;94.00;;;;;;5027815;28;20029;-75
2023/03/16 04:28:07;;;;;;;36.95;35.55;;;12.00;94.00;;;;;;5027787;28;20029;-74
2023/03/16 04:30:33;;;;;;;36.15;34.75;;;12.00;94.00;;;;;;5026530;28;20029;-75
2023/03/16 04:32:59;;;;;;;;;;;12.00;94.00;;;;;;5010453;28;20404;-75
2023/03/16 04:35:25;;;;;;;28.00;26.90;;;12.00;94.00;;;;;;5026386;28;19909;-75
2023/03/16 04:37:51;;;;;;;29.92;28.83;;;12.00;94.00;;;;;;5027836;28;20057;-75
2023/03/16 04:40:18;;;;;;;30.40;29.20;;;12.10;94.10;;;;;;5026313;28;20021;-75
2023/03/16 04:42:45;;;;;;;28.98;27.88;;;12.10;94.10;;;;;;5026417;28;20420;-75
2023/03/16 04:45:12;;;;;;;26.88;25.88;;;12.10;94.00;;;;;;5027484;28;20385;-75
2023/03/16 04:47:39;;;;;;;25.63;24.63;;;12.20;94.00;;;;;;5027374;28;20030;-75
2023/03/16 04:50:05;;;;;;;28.85;27.75;;;12.20;94.00;;;;;;5026155;28;20026;-74
2023/03/16 04:52:31;;;;;;;27.35;26.25;;;12.20;94.00;;;;;;5027646;28;20075;-75
2023/03/16 04:54:57;;;;;;;25.15;24.15;;;12.20;94.00;;;;;;5027599;28;20491;-75
2023/03/16 04:57:23;;;;;;;26.48;25.48;;;12.20;94.00;;;;;;5026083;28;20045;-74
2023/03/16 04:59:49;;;;;;;27.10;26.10;;;12.20;94.00;;;;;;5027461;28;20385;-75
2023/03/16 05:02:16;;;;;;;28.10;27.00;;;12.20;94.00;;;;;;5027138;28;20057;-74
2023/03/16 05:04:41;;;;;;;27.83;26.73;;;12.20;94.00;;;;;;5025970;28;20432;-75
2023/03/16 05:07:07;;;;;;;27.95;26.85;;;12.20;94.00;;;;;;5025803;28;20032;-74
2023/03/16 05:09:33;;;;;;;27.08;26.05;;;12.20;94.00;;;;;;5027329;28;20057;-75
2023/03/16 05:11:58;;;;;;;24.83;23.83;;;12.30;94.30;;;;;;5027319;28;20029;-75
2023/03/16 05:14:24;;;;;;;24.63;23.63;;;12.30;94.00;;;;;;5027283;28;20040;-75
2023/03/16 05:16:51;;;;;;;25.80;24.80;;;12.30;94.00;;;;;;5027270;28;20456;-75
2023/03/16 05:19:16;;;;;;;26.08;25.08;;;12.30;94.10;;;;;;5027168;28;20030;-75
2023/03/16 05:21:42;;;;;;;28.52;27.42;;;12.20;94.00;;;;;;5027226;28;20034;-74
2023/03/16 05:24:08;;;;;;;29.75;28.65;;;12.30;94.10;;;;;;5027206;28;20033;-75
2023/03/16 05:26:34;;;;;;;33.20;31.92;;;12.30;94.10;;;;;;5027123;28;20037;-75
2023/03/16 05:29:00;;;;;;;28.83;27.73;;;12.20;94.00;;;;;;5026990;28;20037;-75
2023/03/16 05:31:26;;;;;;;33.20;31.90;;;12.30;94.00;;;;;;5027071;28;20052;-75
2023/03/16 05:33:53;;;;;;;32.53;31.33;;;12.30;94.20;;;;;;5026294;28;20022;-75
2023/03/16 05:36:19;;;;;;;32.80;31.60;;;12.20;94.00;;;;;;5030995;28;20040;-75
2023/03/16 05:38:45;;;;;;;36.83;35.42;;;12.20;94.00;;;;;;5029673;28;20039;-75
2023/03/16 05:41:11;;;;;;;36.88;35.47;;;12.20;94.00;;;;;;5030969;28;20119;-74
2023/03/16 05:43:36;;;;;;;;;;;12.20;94.00;;;;;;5031411;28;20036;-74
2023/03/16 05:46:02;;;;;;;39.35;37.85;;;12.20;94.00;;;;;;5030667;28;19917;-74
2023/03/16 05:48:28;;;;;;;39.88;38.38;;;12.20;94.00;;;;;;5030742;28;20040;-75
2023/03/16 05:50:54;;;;;;;44.58;42.90;;;12.10;94.00;;;;;;5030659;28;20108;-75
2023/03/16 05:53:22;;;;;;;45.03;43.33;;;12.20;94.00;;;;;;5029379;28;20052;-74
2023/03/16 05:55:51;;;;;;;37.60;36.20;;;12.10;94.00;;;;;;5030558;28;20144;-74
2023/03/16 05:58:17;;;;;;;39.13;37.63;;;12.10;93.90;;;;;;5030321;28;20078;-74
2023/03/16 06:00:43;;;;;;;41.17;39.67;;;12.10;94.00;;;;;;5029291;28;20465;-74
2023/03/16 06:03:08;;;;;;;41.10;39.60;;;12.00;94.00;;;;;;5012664;28;20045;-75
2023/03/16 06:05:34;;;;;;;38.30;36.38;;;12.00;94.00;;;;;;5012502;28;20342;-74
2023/03/16 06:08:01;;;;;;;36.67;35.28;;;12.00;94.00;;;;;;5029088;28;20021;-75
2023/03/16 06:10:27;;;;;;;37.42;36.03;;;12.00;94.00;;;;;;5030439;28;20022;-75
2023/03/16 06:12:52;;;;;;;34.20;32.90;;;12.00;94.00;;;;;;5028945;28;20052;-75
2023/03/16 06:15:18;;;;;;;29.55;28.45;;;12.00;94.00;;;;;;5030268;28;20030;-75
2023/03/16 06:17:44;;;;;;;28.98;27.88;;;12.00;94.00;;;;;;5028958;28;20437;-75
2023/03/16 06:20:12;;;;;;;28.20;27.10;;;12.00;94.00;;;;;;5030156;28;20042;-75
2023/03/16 06:22:40;;;;;;;25.90;24.90;;;12.00;94.00;;;;;;5030001;28;20490;-74
2023/03/16 06:25:07;;;;;;;26.35;25.35;;;12.00;94.00;;;;;;5028754;28;20071;-75
2023/03/16 06:27:33;;;;;;;25.08;24.08;;;11.90;94.00;;;;;;5028631;28;20043;-75
2023/03/16 06:29:58;;;;;;;25.70;24.70;;;12.00;94.10;;;;;;5028733;28;20114;-74
2023/03/16 06:32:24;;;;;;;20.30;19.50;;;12.00;94.00;;;;;;5011911;28;20037;-72
2023/03/16 06:34:50;;;;;;;21.27;20.42;;;12.00;94.00;;;;;;5029826;28;20088;-74
2023/03/16 06:37:15;;;;;;;19.02;18.23;;;12.00;94.00;;;;;;5028578;28;20038;-75
2023/03/16 06:39:41;;;;;;;20.23;19.42;;;12.00;94.10;;;;;;5029847;28;20108;-75
2023/03/16 06:42:07;;;;;;;18.90;18.10;;;12.00;94.10;;;;;;5028505;28;20481;-75
2023/03/16 06:44:33;;;;;;;17.17;16.48;;;12.00;94.10;;;;;;5029459;28;20381;-75
2023/03/16 06:46:59;;;;;;;15.98;15.27;;;12.00;94.10;;;;;;5029503;28;20645;-75
2023/03/16 06:49:24;;;;;;;17.20;16.50;;;12.10;94.10;;;;;;5029357;28;20431;-75
2023/03/16 06:51:50;;;;;;;15.50;14.82;;;12.10;94.10;;;;;;5029346;28;20034;-75
2023/03/16 06:54:16;;;;;;;14.30;13.70;;;12.10;94.10;;;;;;5028248;28;20026;-75
2023/03/16 06:56:41;;;;;;;14.10;13.50;;;12.20;94.10;;;;;;5028214;28;20045;-75
2023/03/16 06:59:07;;;;;;;14.48;13.88;;;12.20;94.10;;;;;;5029082;28;20384;-75
2023/03/16 07:01:33;;;;;;;15.75;15.05;;;12.20;94.10;;;;;;5029007;28;20037;-75
2023/03/16 07:03:59;;;;;;;21.55;20.65;;;12.20;94.10;;;;;;5011853;28;20441;-75
2023/03/16 07:06:24;;;;;;;26.85;25.85;;;12.20;94.10;;;;;;5029137;28;20033;-74
2023/03/16 07:08:50;;;;;;;29.02;27.92;;;12.20;94.00;;;;;;5029449;28;20021;-74
2023/03/16 07:11:16;;;;;;;28.50;27.40;;;12.20;94.00;;;;;;5027663;28;20087;-75
2023/03/16 07:13:43;;;;;;;21.58;20.67;;;12.10;94.00;;;;;;5027695;28;20022;-75
2023/03/16 07:16:09;;;;;;;18.17;17.45;;;12.10;94.00;;;;;;5011336;28;20053;-75
2023/03/16 07:18:36;;;;;;;20.33;19.52;;;12.10;94.10;;;;;;5028820;28;20033;-75
2023/03/16 07:21:02;;;;;;;16.02;15.32;;;12.10;94.10;;;;;;5028991;28;20033;-74
2023/03/16 07:23:28;;;;;;;17.13;16.42;;;12.20;94.10;;;;;;5027695;28;20492;-74
2023/03/16 07:25:54;;;;;;;13.50;12.90;;;12.10;94.10;;;;;;5028550;28;20102;-74
2023/03/16 07:28:20;;;;;;;12.48;11.88;;;12.20;94.10;;;;;;5028480;28;20105;-75
2023/03/16 07:30:46;;;;;;;12.68;12.07;;;12.20;94.10;;;;;;5028839;28;20462;-75
2023/03/16 07:33:13;;;;;;;12.40;11.80;;;12.20;94.10;;;;;;5028557;28;20030;-75
2023/03/16 07:35:38;;;;;;;11.65;11.15;;;12.20;94.10;;;;;;5028387;28;20018;-75
2023/03/16 07:38:04;;;;;;;10.25;9.75;;;12.30;94.10;;;;;;5028321;28;20040;-76
2023/03/16 07:40:31;;;;;;;11.57;11.07;;;12.30;94.10;;;;;;5028418;28;20034;-73
2023/03/16 07:42:56;;;;;;;12.13;11.63;;;12.30;94.10;;;;;;5027199;28;20021;-74
2023/03/16 07:45:22;;;;;;;11.88;11.38;;;12.30;94.10;;;;;;5028570;28;20032;-74
2023/03/16 07:47:48;;;;;;;13.38;12.77;;;12.30;94.10;;;;;;5027057;28;20038;-75
2023/03/16 07:50:15;;;;;;;16.45;15.75;;;12.30;94.10;;;;;;5028132;28;20030;-74
2023/03/16 07:52:42;;;;;;;22.88;21.98;;;12.30;94.10;;;;;;5027957;28;20041;-74
2023/03/16 07:55:09;;;;;;;21.70;20.80;;;12.30;94.00;;;;;;5027951;28;20551;-73
2023/03/16 07:57:35;;;;;;;18.83;18.02;;;12.30;94.10;;;;;;5027001;28;20088;-74
2023/03/16 08:00:04;;;;;;;20.10;19.30;;;12.20;94.10;;;;;;5027793;28;20041;-75
2023/03/16 08:02:30;;;;;;;16.20;15.50;;;12.30;94.20;;;;;;5025689;28;20188;-74
2023/03/16 08:04:55;;;;;;;16.77;16.08;;;12.30;94.20;;;;;;5027938;28;20040;-75
2023/03/16 08:07:21;;;;;;;14.82;14.23;;;12.40;94.20;;;;;;5026545;28;20041;-75
2023/03/16 08:09:47;;;;;;;13.98;13.38;;;12.50;94.20;;;;;;5026969;28;20141;-76
2023/03/16 08:12:13;;;;;;;13.02;12.43;;;12.60;94.20;;;;;;5027838;28;20075;-75
2023/03/16 08:14:38;;;;;;;12.80;12.20;;;12.80;94.20;;;;;;5027880;28;20457;-74
2023/03/16 08:17:06;;;;;;;12.05;11.55;;;12.90;94.20;;;;;;5027768;28;20043;-74
2023/03/16 08:19:32;;;;;;;11.65;11.15;;;12.90;94.10;;;;;;5027626;28;20451;-74
2023/03/16 08:22:00;;;;;;;11.93;11.43;;;13.00;94.10;;;;;;5027576;28;20057;-74
2023/03/16 08:24:26;;;;;;;11.43;10.93;;;13.00;94.10;;;;;;5027434;28;20034;-75
2023/03/16 08:26:52;;;;;;;11.57;11.07;;;13.00;94.10;;;;;;5027370;28;20025;-75
2023/03/16 08:29:19;;;;;;;10.95;10.45;;;13.00;94.10;;;;;;5027392;28;20375;-74
2023/03/16 08:31:45;;;;;;;10.25;9.75;;;13.00;94.10;;;;;;5027338;28;20041;-74
2023/03/16 08:34:11;;;;;;;9.68;9.18;;;13.00;94.10;;;;;;5026255;28;20482;-74
2023/03/16 08:36:37;;;;;;;9.75;9.25;;;13.10;94.20;;;;;;5027186;28;20037;-75
2023/03/16 08:39:04;;;;;;;9.52;9.02;;;13.10;94.20;;;;;;5025465;28;20033;-74
2023/03/16 08:41:31;;;;;;;8.57;8.18;;;13.20;94.20;;;;;;5026928;28;20383;-76
2023/03/16 08:43:58;;;;;;;7.68;7.28;;;13.20;94.20;;;;;;5027073;28;20021;-76
2023/03/16 08:46:23;;;;;;;8.30;7.90;;;13.40;94.30;;;;;;5027401;28;20119;-75
2023/03/16 08:48:49;;;;;;;8.48;8.07;;;13.50;94.20;;;;;;5026959;28;20065;-75
2023/03/16 08:51:16;;;;;;;7.85;7.45;;;13.60;94.30;;;;;;5027042;28;20057;-75
2023/03/16 08:53:43;;;;;;;7.35;6.95;;;13.70;94.20;;;;;;5025313;28;20477;-76
2023/03/16 08:56:11;;;;;;;6.47;6.07;;;13.80;94.20;;;;;;5026568;28;20104;-76
2023/03/16 08:58:38;;;;;;;5.80;5.50;;;14.00;94.30;;;;;;5025407;28;20026;-75
2023/03/16 09:01:05;;;;;;;5.97;5.68;;;14.20;94.40;;;;;;5025220;28;20195;-76
2023/03/16 09:03:34;;;;;;;5.90;5.60;;;14.40;94.30;;;;;;5035481;28;20087;-76
2023/03/16 09:06:09;;;;;;;5.32;5.03;;;14.50;94.10;;;;;;5036512;28;20142;-75
2023/03/16 09:08:35;;;;;;;5.57;5.28;;;14.50;94.10;;;;;;5039698;28;20052;-76
2023/03/16 09:11:04;;;;;;;6.40;6.00;;;14.50;94.10;;;;;;5043523;28;20056;-75
2023/03/16 09:13:31;;;;;;;5.70;5.40;;;14.40;94.10;;;;;;5043384;28;20022;-75
2023/03/16 09:15:58;;;;;;;5.28;4.97;;;14.50;94.30;;;;;;5054351;28;20024;-75
2023/03/16 09:18:26;;;;;;;5.22;4.93;;;14.70;94.30;;;;;;5039540;28;20053;-75
2023/03/16 09:21:04;;;;;;;5.20;4.90;;;14.80;94.20;;;;;;5044270;28;20036;-76
2023/03/16 09:23:30;;;;;;;4.80;4.50;;;14.90;94.20;;;;;;5044382;28;20449;-75
2023/03/16 09:25:58;;;;;;;5.15;4.85;;;14.90;94.20;;;;;;5041954;28;20064;-75
2023/03/16 09:28:26;;;;;;;5.05;4.75;;;14.90;94.00;;;;;;5043404;28;20059;-75
2023/03/16 09:30:53;;;;;;;5.40;5.10;;;14.90;94.00;;;;;;5042039;28;20025;-75
2023/03/16 09:33:20;;;;;;;5.35;5.05;;;14.70;94.00;;;;;;5043939;28;20100;-75
2023/03/16 09:35:47;;;;;;;5.18;4.88;;;14.70;94.00;;;;;;5042725;28;20017;-73
2023/03/16 09:38:12;;;;;;;;;;;14.60;94.20;;;;;;5041332;28;20049;-73
2023/03/16 09:40:40;;;;;;;5.57;5.28;;;14.60;94.20;;;;;;5043873;28;19943;-70
2023/03/16 09:43:43;;;;;;;5.45;5.15;;;14.60;94.20;;;;;;5043553;28;20022;-72
2023/03/16 09:46:18;;;;;;;5.30;5.00;;;14.60;94.30;;;;;;5043657;28;20037;-71
2023/03/16 09:48:44;;;;;;;5.30;5.00;;;14.70;94.30;;;;;;5043087;28;20044;-72
2023/03/16 09:51:49;;;;;;;5.32;5.03;;;14.80;94.30;;;;;;5042489;28;20072;-71
2023/03/16 09:54:26;;;;;;;5.20;4.90;;;14.80;94.20;;;;;;5042196;28;20029;-72
2023/03/16 09:56:54;;;;;;;4.70;4.40;;;14.80;94.20;;;;;;5041956;28;20040;-71
2023/03/16 09:59:21;;;;;;;4.90;4.60;;;14.80;94.20;;;;;;5043654;28;20020;-72
2023/03/16 10:02:09;;;;;;;4.70;4.40;;;14.80;94.20;;;;;;5043702;28;20045;-72
2023/03/16 10:04:56;;;;;;;4.82;4.53;;;14.70;94.20;;;;;;5043589;28;20032;-72
2023/03/16 10:07:41;;;;;;;4.60;4.30;;;14.70;94.20;;;;;;5042245;28;20114;-72
2023/03/16 10:10:10;;;;;;;4.60;4.30;;;14.60;94.10;;;;;;5042395;28;20017;-72
2023/03/16 10:12:44;;;;;;;4.70;4.40;;;14.60;94.20;;;;;;5042263;28;20017;-72
2023/03/16 10:15:13;;;;;;;4.43;4.13;;;14.60;94.30;;;;;;5042229;28;20108;-72
2023/03/16 10:18:06;;;;;;;4.47;4.18;;;14.60;94.30;;;;;;5043906;28;20100;-72
2023/03/16 10:20:33;;;;;;;4.28;3.97;;;14.70;94.40;;;;;;5038175;28;20025;-73
2023/03/16 10:23:00;;;;;;;4.50;4.20;;;14.90;94.30;;;;;;5045294;28;20505;-72
2023/03/16 10:25:48;;;;;;;4.20;3.90;;;15.00;94.30;;;;;;5050570;28;20037;-72
2023/03/16 10:28:20;;;;;;;4.00;3.70;;;15.10;94.30;;;;;;5047193;28;20469;-72
2023/03/16 10:30:51;;;;;;;4.30;4.00;;;15.20;94.30;;;;;;5050175;28;20382;-71
2023/03/16 10:33:30;;;;;;;3.70;3.40;;;15.20;94.30;;;;;;5041702;28;20025;-71
2023/03/16 10:35:58;;;;;;;3.40;3.10;;;15.40;94.30;;;;;;5043233;28;20496;-71
2023/03/16 10:38:29;;;;;;;3.00;2.80;;;15.60;94.50;;;;;;5038777;28;20124;-72
2023/03/16 10:40:59;;;;;;;2.90;2.70;;;15.90;94.60;;;;;;5029699;28;20440;-72
2023/03/16 10:43:27;;;;;;;2.80;2.60;;;16.10;94.50;;;;;;5030291;28;20034;-72
2023/03/16 10:46:00;;;;;;;2.40;2.20;;;16.50;94.70;;;;;;5049637;28;20052;-72
2023/03/16 10:48:27;;;;;;;2.10;1.90;;;17.00;94.90;;;;;;5049795;28;20031;-72
2023/03/16 10:50:57;;;;;;;1.70;1.60;;;17.50;94.80;;;;;;5048134;28;20021;-71
2023/03/16 10:53:28;;;;;;;1.75;1.65;;;17.80;94.50;;;;;;5049776;28;20017;-72
2023/03/16 10:56:10;;;;;;;1.45;1.35;;;17.90;94.40;;;;;;5048494;28;20059;-70
2023/03/16 10:58:41;;;;;;;1.50;1.40;;;18.10;94.30;;;;;;5049799;28;20083;-72
2023/03/16 11:01:16;;;;;;;1.70;1.60;;;17.90;93.90;;;;;;5049443;28;20036;-71
2023/03/16 11:03:46;;;;;;;2.10;1.90;;;17.60;93.80;;;;;;5049546;28;20069;-71
2023/03/16 11:06:23;;;;;;;1.60;1.50;;;17.30;94.10;;;;;;5049194;28;20055;-70
2023/03/16 11:08:51;;;;;;;1.90;1.80;;;17.30;94.20;;;;;;5049320;28;20112;-73
2023/03/16 11:11:29;;;;;;;1.90;1.80;;;17.10;94.10;;;;;;5049809;28;20033;-72
2023/03/16 11:14:01;;;;;;;1.90;1.80;;;16.90;94.10;;;;;;5048570;28;20143;-73
2023/03/16 11:16:38;;;;;;;1.80;1.70;;;16.80;94.10;;;;;;5049405;28;20039;-72
2023/03/16 11:19:20;;;;;;;1.80;1.70;;;16.70;94.20;;;;;;5049489;28;20021;-74
2023/03/16 11:22:02;;;;;;;1.90;1.80;;;16.60;94.30;;;;;;5049231;28;20067;-72
2023/03/16 11:24:46;;;;;;;0.90;0.90;;;16.90;95.00;;;;;;5049263;28;20025;-73
2023/03/16 11:27:22;;;;;;;0.80;0.80;;;17.90;95.20;;;;;;5048815;28;20040;-73
2023/03/16 11:30:00;;;;;;;0.82;0.82;;;18.30;94.80;;;;;;5047968;28;20523;-73
2023/03/16 11:32:32;;;;;;;0.93;0.93;;;18.40;94.40;;;;;;5048218;28;20021;-68
2023/03/16 11:34:59;;;;;;;0.80;0.80;;;18.40;94.30;;;;;;5048903;28;20021;-69
2023/03/16 11:37:35;;;;;;;0.70;0.70;;;18.50;94.30;;;;;;5049093;28;20078;-71
2023/03/16 11:40:19;;;;;;;0.80;0.80;;;18.60;94.30;;;;;;5048948;28;20029;-71
2023/03/16 11:42:59;;;;;;;0.70;0.70;;;18.50;94.20;;;;;;5047711;28;20076;-71
2023/03/16 11:45:55;;;;;;;0.88;0.88;;;18.30;94.10;;;;;;5048627;28;20029;-70
2023/03/16 11:48:35;;;;;;;0.80;0.80;;;18.00;94.10;;;;;;5026942;28;20124;-74
2023/03/16 11:51:23;;;;;;;0.80;0.80;;;18.00;94.40;;;;;;5049159;28;20021;-73
2023/03/16 11:54:07;;;;;;;0.80;0.80;;;18.00;94.50;;;;;;5048837;28;20032;-73
2023/03/16 11:56:42;;;;;;;0.90;0.90;;;17.90;94.20;;;;;;5048565;28;20094;-73
2023/03/16 11:59:33;;;;;;;0.70;0.70;;;17.90;94.60;;;;;;5049022;28;20507;-72
2023/03/16 12:02:07;;;;;;;0.80;0.80;;;18.00;94.60;;;;;;5048788;28;20045;-74
2023/03/16 12:04:51;;;;;;;0.70;0.70;;;18.00;94.40;;;;;;5048725;28;20025;-74
2023/03/16 12:07:23;;;;;;;0.70;0.70;;;18.00;94.40;;;;;;5048682;28;20024;-74
2023/03/16 12:10:22;;;;;;;0.70;0.70;;;18.10;94.40;;;;;;5048960;28;20223;-73
2023/03/16 12:13:07;;;;;;;0.60;0.60;;;18.10;94.40;;;;;;5047975;28;20021;-74
2023/03/16 12:15:44;;;;;;;0.60;0.60;;;18.10;94.40;;;;;;5048272;28;20028;-72
2023/03/16 12:18:14;;;;;;;;;;;18.10;94.30;;;;;;5048700;28;20040;-74
2023/03/16 12:20:53;;;;;;;0.80;0.80;;;18.10;94.30;;;;;;5048501;28;19942;-74
2023/03/16 12:23:26;;;;;;;0.60;0.60;;;18.00;94.30;;;;;;5048410;28;20042;-74
2023/03/16 12:25:52;;;;;;;0.70;0.70;;;18.10;94.20;;;;;;5048181;28;20075;-73
2023/03/16 12:28:24;;;;;;;0.70;0.70;;;17.90;94.30;;;;;;5048242;28;20048;-76
2023/03/16 12:30:58;;;;;;;1.00;1.00;;;17.80;94.10;;;;;;5048021;28;20043;-76
2023/03/16 12:33:43;;;;;;;0.60;0.60;;;17.80;94.70;;;;;;5048316;28;20024;-75
2023/03/16 12:36:12;;;;;;;0.50;0.50;;;18.30;94.80;;;;;;5046857;28;20028;-76
2023/03/16 12:39:00;;;;;;;0.60;0.60;;;18.40;94.50;;;;;;5047778;28;20059;-76
2023/03/16 12:41:43;;;;;;;0.50;0.50;;;18.30;94.60;;;;;;5049502;28;20435;-78
2023/03/16 12:44:30;;;;;;;0.30;0.30;;;18.90;95.20;;;;;;5047721;28;20033;-75
2023/03/16 12:47:18;;;;;;;0.30;0.30;;;19.30;94.80;;;;;;5048173;28;20083;-77
2023/03/16 12:49:44;;;;;;;0.30;0.30;;;19.40;94.50;;;;;;5048470;28;20021;-78